sensor_id;sensor_type;location;lat;lon;timestamp;P1;durP1;ratioP1;P2;durP2;ratioP2
52620;SDS011;38515;53.160;6.990;2022-07-10T00:01:57;11.43;;;3.53;;
52620;SDS011;38515;53.160;6.990;2022-07-10T00:04:23;8.02;;;2.20;;
52620;SDS011;38515;53.160;6.990;2022-07-10T00:06:49;7.40;;;2.25;;
52620;SDS011;38515;53.160;6.990;2022-07-10T00:09:15;5.47;;;2.47;;
52620;SDS011;38515;53.160;6.990;2022-07-10T00:11:41;6.13;;;2.38;;
52620;SDS011;38515;53.160;6.990;2022-07-10T00:14:08;6.43;;;2.40;;
52620;SDS011;38515;53.160;6.990;2022-07-10T00:16:34;11.43;;;2.22;;
52620;SDS011;38515;53.160;6.990;2022-07-10T00:19:01;3.90;;;1.70;;
52620;SDS011;38515;53.160;6.990;2022-07-10T00:21:27;9.35;;;3.60;;
52620;SDS011;38515;53.160;6.990;2022-07-10T00:23:52;10.25;;;1.85;;
52620;SDS011;38515;53.160;6.990;2022-07-10T00:26:18;10.82;;;2.58;;
52620;SDS011;38515;53.160;6.990;2022-07-10T00:28:44;7.90;;;2.47;;
52620;SDS011;38515;53.160;6.990;2022-07-10T00:31:10;7.45;;;2.08;;
52620;SDS011;38515;53.160;6.990;2022-07-10T00:33:37;9.82;;;2.58;;
52620;SDS011;38515;53.160;6.990;2022-07-10T00:36:04;11.90;;;2.33;;
52620;SDS011;38515;53.160;6.990;2022-07-10T00:38:31;8.40;;;2.25;;
52620;SDS011;38515;53.160;6.990;2022-07-10T00:40:57;6.90;;;2.05;;
52620;SDS011;38515;53.160;6.990;2022-07-10T00:43:23;5.30;;;2.05;;
52620;SDS011;38515;53.160;6.990;2022-07-10T00:45:49;8.63;;;2.15;;
52620;SDS011;38515;53.160;6.990;2022-07-10T00:48:15;7.13;;;2.45;;
52620;SDS011;38515;53.160;6.990;2022-07-10T00:50:42;7.22;;;2.67;;
52620;SDS011;38515;53.160;6.990;2022-07-10T00:53:11;6.80;;;1.92;;
52620;SDS011;38515;53.160;6.990;2022-07-10T00:55:38;6.22;;;2.00;;
52620;SDS011;38515;53.160;6.990;2022-07-10T00:58:06;6.97;;;2.17;;
52620;SDS011;38515;53.160;6.990;2022-07-10T01:00:33;5.38;;;2.03;;
52620;SDS011;38515;53.160;6.990;2022-07-10T01:03:02;5.20;;;2.53;;
52620;SDS011;38515;53.160;6.990;2022-07-10T01:05:28;9.50;;;2.70;;
52620;SDS011;38515;53.160;6.990;2022-07-10T01:07:54;7.65;;;2.42;;
52620;SDS011;38515;53.160;6.990;2022-07-10T01:10:20;9.00;;;2.63;;
52620;SDS011;38515;53.160;6.990;2022-07-10T01:12:46;12.40;;;3.55;;
52620;SDS011;38515;53.160;6.990;2022-07-10T01:15:13;10.52;;;2.83;;
52620;SDS011;38515;53.160;6.990;2022-07-10T01:17:39;6.50;;;2.80;;
52620;SDS011;38515;53.160;6.990;2022-07-10T01:20:05;8.65;;;2.25;;
52620;SDS011;38515;53.160;6.990;2022-07-10T01:22:32;13.13;;;3.13;;
52620;SDS011;38515;53.160;6.990;2022-07-10T01:24:58;11.68;;;2.70;;
52620;SDS011;38515;53.160;6.990;2022-07-10T01:27:24;18.17;;;2.83;;
52620;SDS011;38515;53.160;6.990;2022-07-10T01:29:53;7.93;;;2.45;;
52620;SDS011;38515;53.160;6.990;2022-07-10T01:32:19;6.75;;;3.13;;
52620;SDS011;38515;53.160;6.990;2022-07-10T01:34:45;12.02;;;2.85;;
52620;SDS011;38515;53.160;6.990;2022-07-10T01:37:12;5.32;;;2.28;;
52620;SDS011;38515;53.160;6.990;2022-07-10T01:39:39;8.48;;;2.58;;
52620;SDS011;38515;53.160;6.990;2022-07-10T01:42:05;7.03;;;2.40;;
52620;SDS011;38515;53.160;6.990;2022-07-10T01:44:30;5.88;;;2.30;;
52620;SDS011;38515;53.160;6.990;2022-07-10T01:46:56;7.00;;;2.42;;
52620;SDS011;38515;53.160;6.990;2022-07-10T01:49:22;7.95;;;2.45;;
52620;SDS011;38515;53.160;6.990;2022-07-10T01:51:48;6.85;;;2.42;;
52620;SDS011;38515;53.160;6.990;2022-07-10T01:54:14;6.20;;;2.35;;
52620;SDS011;38515;53.160;6.990;2022-07-10T01:56:39;8.27;;;3.25;;
52620;SDS011;38515;53.160;6.990;2022-07-10T01:59:08;9.98;;;3.15;;
52620;SDS011;38515;53.160;6.990;2022-07-10T02:01:34;9.13;;;2.40;;
52620;SDS011;38515;53.160;6.990;2022-07-10T02:04:00;8.27;;;2.72;;
52620;SDS011;38515;53.160;6.990;2022-07-10T02:06:45;9.02;;;2.42;;
52620;SDS011;38515;53.160;6.990;2022-07-10T02:09:11;6.10;;;2.40;;
52620;SDS011;38515;53.160;6.990;2022-07-10T02:11:39;9.35;;;2.42;;
52620;SDS011;38515;53.160;6.990;2022-07-10T02:14:05;6.78;;;2.72;;
52620;SDS011;38515;53.160;6.990;2022-07-10T02:16:33;11.80;;;2.97;;
52620;SDS011;38515;53.160;6.990;2022-07-10T02:19:01;5.07;;;2.30;;
52620;SDS011;38515;53.160;6.990;2022-07-10T02:21:27;10.18;;;2.35;;
52620;SDS011;38515;53.160;6.990;2022-07-10T02:23:53;12.88;;;2.70;;
52620;SDS011;38515;53.160;6.990;2022-07-10T02:26:18;5.47;;;2.10;;
52620;SDS011;38515;53.160;6.990;2022-07-10T02:28:44;10.45;;;2.80;;
52620;SDS011;38515;53.160;6.990;2022-07-10T02:31:10;10.30;;;2.63;;
52620;SDS011;38515;53.160;6.990;2022-07-10T02:33:36;10.55;;;2.60;;
52620;SDS011;38515;53.160;6.990;2022-07-10T02:36:02;7.18;;;2.60;;
52620;SDS011;38515;53.160;6.990;2022-07-10T02:38:29;6.80;;;2.45;;
52620;SDS011;38515;53.160;6.990;2022-07-10T02:40:55;9.50;;;3.80;;
52620;SDS011;38515;53.160;6.990;2022-07-10T02:43:21;7.57;;;2.50;;
52620;SDS011;38515;53.160;6.990;2022-07-10T02:45:46;4.13;;;2.47;;
52620;SDS011;38515;53.160;6.990;2022-07-10T02:48:14;6.72;;;2.30;;
52620;SDS011;38515;53.160;6.990;2022-07-10T02:50:41;11.68;;;3.10;;
52620;SDS011;38515;53.160;6.990;2022-07-10T02:53:07;8.10;;;2.70;;
52620;SDS011;38515;53.160;6.990;2022-07-10T02:55:32;12.63;;;3.00;;
52620;SDS011;38515;53.160;6.990;2022-07-10T02:57:59;8.38;;;2.80;;
52620;SDS011;38515;53.160;6.990;2022-07-10T03:00:25;7.25;;;2.42;;
52620;SDS011;38515;53.160;6.990;2022-07-10T03:02:52;9.98;;;3.72;;
52620;SDS011;38515;53.160;6.990;2022-07-10T03:05:18;7.97;;;3.20;;
52620;SDS011;38515;53.160;6.990;2022-07-10T03:07:44;4.75;;;2.38;;
52620;SDS011;38515;53.160;6.990;2022-07-10T03:10:14;10.60;;;2.97;;
52620;SDS011;38515;53.160;6.990;2022-07-10T03:12:40;9.85;;;2.58;;
52620;SDS011;38515;53.160;6.990;2022-07-10T03:15:08;11.60;;;3.30;;
52620;SDS011;38515;53.160;6.990;2022-07-10T03:17:35;11.50;;;3.05;;
52620;SDS011;38515;53.160;6.990;2022-07-10T03:20:00;5.30;;;2.20;;
52620;SDS011;38515;53.160;6.990;2022-07-10T03:22:26;11.13;;;2.42;;
52620;SDS011;38515;53.160;6.990;2022-07-10T03:24:53;5.72;;;2.65;;
52620;SDS011;38515;53.160;6.990;2022-07-10T03:27:19;5.57;;;2.42;;
52620;SDS011;38515;53.160;6.990;2022-07-10T03:29:45;6.97;;;2.47;;
52620;SDS011;38515;53.160;6.990;2022-07-10T03:32:11;6.65;;;2.53;;
52620;SDS011;38515;53.160;6.990;2022-07-10T03:34:37;7.82;;;3.00;;
52620;SDS011;38515;53.160;6.990;2022-07-10T03:37:03;5.85;;;2.40;;
52620;SDS011;38515;53.160;6.990;2022-07-10T03:39:29;10.88;;;2.53;;
52620;SDS011;38515;53.160;6.990;2022-07-10T03:41:55;6.95;;;3.20;;
52620;SDS011;38515;53.160;6.990;2022-07-10T03:44:21;9.20;;;2.42;;
52620;SDS011;38515;53.160;6.990;2022-07-10T03:46:46;4.82;;;2.38;;
52620;SDS011;38515;53.160;6.990;2022-07-10T03:49:12;6.40;;;2.35;;
52620;SDS011;38515;53.160;6.990;2022-07-10T03:51:38;11.40;;;2.78;;
52620;SDS011;38515;53.160;6.990;2022-07-10T03:54:04;11.35;;;3.35;;
52620;SDS011;38515;53.160;6.990;2022-07-10T03:56:29;14.73;;;3.25;;
52620;SDS011;38515;53.160;6.990;2022-07-10T03:59:14;12.57;;;3.35;;
52620;SDS011;38515;53.160;6.990;2022-07-10T04:01:40;6.88;;;2.80;;
52620;SDS011;38515;53.160;6.990;2022-07-10T04:04:05;6.32;;;3.10;;
52620;SDS011;38515;53.160;6.990;2022-07-10T04:06:31;8.05;;;2.55;;
52620;SDS011;38515;53.160;6.990;2022-07-10T04:08:57;9.88;;;2.97;;
52620;SDS011;38515;53.160;6.990;2022-07-10T04:11:23;7.28;;;2.58;;
52620;SDS011;38515;53.160;6.990;2022-07-10T04:13:49;13.57;;;2.85;;
52620;SDS011;38515;53.160;6.990;2022-07-10T04:16:14;9.38;;;3.28;;
52620;SDS011;38515;53.160;6.990;2022-07-10T04:18:40;8.73;;;2.85;;
52620;SDS011;38515;53.160;6.990;2022-07-10T04:21:06;8.55;;;2.70;;
52620;SDS011;38515;53.160;6.990;2022-07-10T04:23:32;7.80;;;3.35;;
52620;SDS011;38515;53.160;6.990;2022-07-10T04:25:59;8.00;;;2.83;;
52620;SDS011;38515;53.160;6.990;2022-07-10T04:28:25;8.18;;;2.60;;
52620;SDS011;38515;53.160;6.990;2022-07-10T04:30:51;11.63;;;3.53;;
52620;SDS011;38515;53.160;6.990;2022-07-10T04:33:17;8.63;;;2.85;;
52620;SDS011;38515;53.160;6.990;2022-07-10T04:35:43;8.25;;;3.22;;
52620;SDS011;38515;53.160;6.990;2022-07-10T04:38:09;9.07;;;2.72;;
52620;SDS011;38515;53.160;6.990;2022-07-10T04:40:35;10.90;;;3.30;;
52620;SDS011;38515;53.160;6.990;2022-07-10T04:43:01;9.65;;;3.08;;
52620;SDS011;38515;53.160;6.990;2022-07-10T04:45:26;5.32;;;2.50;;
52620;SDS011;38515;53.160;6.990;2022-07-10T04:47:52;14.85;;;3.42;;
52620;SDS011;38515;53.160;6.990;2022-07-10T04:50:18;8.27;;;2.65;;
52620;SDS011;38515;53.160;6.990;2022-07-10T04:52:44;12.52;;;3.33;;
52620;SDS011;38515;53.160;6.990;2022-07-10T04:55:10;5.30;;;2.15;;
52620;SDS011;38515;53.160;6.990;2022-07-10T04:57:35;8.40;;;2.83;;
52620;SDS011;38515;53.160;6.990;2022-07-10T05:00:02;10.98;;;2.50;;
52620;SDS011;38515;53.160;6.990;2022-07-10T05:02:29;9.38;;;2.50;;
52620;SDS011;38515;53.160;6.990;2022-07-10T05:04:54;7.43;;;2.65;;
52620;SDS011;38515;53.160;6.990;2022-07-10T05:07:20;13.68;;;3.22;;
52620;SDS011;38515;53.160;6.990;2022-07-10T05:09:46;13.63;;;2.58;;
52620;SDS011;38515;53.160;6.990;2022-07-10T05:12:12;6.63;;;2.40;;
52620;SDS011;38515;53.160;6.990;2022-07-10T05:14:37;8.70;;;2.85;;
52620;SDS011;38515;53.160;6.990;2022-07-10T05:17:03;12.35;;;3.22;;
52620;SDS011;38515;53.160;6.990;2022-07-10T05:19:29;13.02;;;2.97;;
52620;SDS011;38515;53.160;6.990;2022-07-10T05:21:55;9.13;;;2.47;;
52620;SDS011;38515;53.160;6.990;2022-07-10T05:24:21;7.63;;;2.55;;
52620;SDS011;38515;53.160;6.990;2022-07-10T05:26:47;11.35;;;2.88;;
52620;SDS011;38515;53.160;6.990;2022-07-10T05:29:12;9.48;;;3.78;;
52620;SDS011;38515;53.160;6.990;2022-07-10T05:31:38;8.95;;;3.83;;
52620;SDS011;38515;53.160;6.990;2022-07-10T05:34:04;12.10;;;2.70;;
52620;SDS011;38515;53.160;6.990;2022-07-10T05:36:30;10.00;;;4.25;;
52620;SDS011;38515;53.160;6.990;2022-07-10T05:38:56;13.85;;;2.63;;
52620;SDS011;38515;53.160;6.990;2022-07-10T05:41:22;8.55;;;2.50;;
52620;SDS011;38515;53.160;6.990;2022-07-10T05:43:48;8.07;;;2.60;;
52620;SDS011;38515;53.160;6.990;2022-07-10T05:46:13;6.95;;;3.00;;
52620;SDS011;38515;53.160;6.990;2022-07-10T05:48:40;9.30;;;2.70;;
52620;SDS011;38515;53.160;6.990;2022-07-10T05:51:05;12.27;;;2.85;;
52620;SDS011;38515;53.160;6.990;2022-07-10T05:53:31;11.00;;;3.15;;
52620;SDS011;38515;53.160;6.990;2022-07-10T05:56:00;11.23;;;3.00;;
52620;SDS011;38515;53.160;6.990;2022-07-10T05:58:27;10.40;;;2.50;;
52620;SDS011;38515;53.160;6.990;2022-07-10T06:00:53;7.22;;;3.30;;
52620;SDS011;38515;53.160;6.990;2022-07-10T06:03:19;5.72;;;2.95;;
52620;SDS011;38515;53.160;6.990;2022-07-10T06:05:46;9.20;;;3.08;;
52620;SDS011;38515;53.160;6.990;2022-07-10T06:08:12;14.82;;;3.08;;
52620;SDS011;38515;53.160;6.990;2022-07-10T06:10:39;10.45;;;2.80;;
52620;SDS011;38515;53.160;6.990;2022-07-10T06:13:05;5.55;;;2.20;;
52620;SDS011;38515;53.160;6.990;2022-07-10T06:15:31;7.53;;;2.55;;
52620;SDS011;38515;53.160;6.990;2022-07-10T06:17:57;6.35;;;2.38;;
52620;SDS011;38515;53.160;6.990;2022-07-10T06:20:24;9.65;;;3.75;;
52620;SDS011;38515;53.160;6.990;2022-07-10T06:22:51;13.93;;;3.10;;
52620;SDS011;38515;53.160;6.990;2022-07-10T06:25:17;6.22;;;2.53;;
52620;SDS011;38515;53.160;6.990;2022-07-10T06:27:42;9.23;;;2.85;;
52620;SDS011;38515;53.160;6.990;2022-07-10T06:30:08;6.00;;;2.55;;
52620;SDS011;38515;53.160;6.990;2022-07-10T06:32:34;8.57;;;2.30;;
52620;SDS011;38515;53.160;6.990;2022-07-10T06:35:00;7.90;;;2.40;;
52620;SDS011;38515;53.160;6.990;2022-07-10T06:37:27;7.72;;;2.83;;
52620;SDS011;38515;53.160;6.990;2022-07-10T06:39:52;6.53;;;2.70;;
52620;SDS011;38515;53.160;6.990;2022-07-10T06:42:18;13.13;;;2.67;;
52620;SDS011;38515;53.160;6.990;2022-07-10T06:44:44;7.88;;;2.67;;
52620;SDS011;38515;53.160;6.990;2022-07-10T06:47:10;9.30;;;2.50;;
52620;SDS011;38515;53.160;6.990;2022-07-10T06:49:57;7.10;;;1.70;;
52620;SDS011;38515;53.160;6.990;2022-07-10T06:52:23;7.35;;;2.47;;
52620;SDS011;38515;53.160;6.990;2022-07-10T06:54:49;5.47;;;2.22;;
52620;SDS011;38515;53.160;6.990;2022-07-10T06:57:16;6.18;;;2.70;;
52620;SDS011;38515;53.160;6.990;2022-07-10T06:59:44;8.77;;;2.28;;
52620;SDS011;38515;53.160;6.990;2022-07-10T07:02:11;10.27;;;2.58;;
52620;SDS011;38515;53.160;6.990;2022-07-10T07:04:37;6.63;;;1.92;;
52620;SDS011;38515;53.160;6.990;2022-07-10T07:07:03;3.22;;;1.77;;
52620;SDS011;38515;53.160;6.990;2022-07-10T07:09:29;7.35;;;1.85;;
52620;SDS011;38515;53.160;6.990;2022-07-10T07:11:56;7.93;;;2.00;;
52620;SDS011;38515;53.160;6.990;2022-07-10T07:14:22;9.52;;;2.33;;
52620;SDS011;38515;53.160;6.990;2022-07-10T07:16:47;7.75;;;2.47;;
52620;SDS011;38515;53.160;6.990;2022-07-10T07:19:24;6.13;;;1.77;;
52620;SDS011;38515;53.160;6.990;2022-07-10T07:21:57;9.55;;;2.15;;
52620;SDS011;38515;53.160;6.990;2022-07-10T07:27:09;6.93;;;1.88;;
52620;SDS011;38515;53.160;6.990;2022-07-10T07:29:36;4.18;;;1.80;;
52620;SDS011;38515;53.160;6.990;2022-07-10T07:32:02;6.63;;;2.40;;
52620;SDS011;38515;53.160;6.990;2022-07-10T07:34:29;7.28;;;2.30;;
52620;SDS011;38515;53.160;6.990;2022-07-10T07:36:56;5.60;;;2.65;;
52620;SDS011;38515;53.160;6.990;2022-07-10T07:39:22;12.85;;;2.78;;
52620;SDS011;38515;53.160;6.990;2022-07-10T07:41:49;9.95;;;3.63;;
52620;SDS011;38515;53.160;6.990;2022-07-10T07:44:15;5.88;;;2.33;;
52620;SDS011;38515;53.160;6.990;2022-07-10T07:46:43;7.72;;;2.17;;
52620;SDS011;38515;53.160;6.990;2022-07-10T07:49:09;6.68;;;2.35;;
52620;SDS011;38515;53.160;6.990;2022-07-10T07:51:35;9.05;;;3.10;;
52620;SDS011;38515;53.160;6.990;2022-07-10T07:54:01;8.23;;;2.10;;
52620;SDS011;38515;53.160;6.990;2022-07-10T07:56:26;5.72;;;2.03;;
52620;SDS011;38515;53.160;6.990;2022-07-10T07:58:52;9.80;;;2.10;;
52620;SDS011;38515;53.160;6.990;2022-07-10T08:01:18;6.78;;;1.85;;
52620;SDS011;38515;53.160;6.990;2022-07-10T08:03:44;6.88;;;2.00;;
52620;SDS011;38515;53.160;6.990;2022-07-10T08:06:11;9.88;;;1.88;;
52620;SDS011;38515;53.160;6.990;2022-07-10T08:08:37;3.83;;;1.52;;
52620;SDS011;38515;53.160;6.990;2022-07-10T08:11:03;4.85;;;1.70;;
52620;SDS011;38515;53.160;6.990;2022-07-10T08:13:29;4.40;;;2.13;;
52620;SDS011;38515;53.160;6.990;2022-07-10T08:15:54;7.38;;;2.20;;
52620;SDS011;38515;53.160;6.990;2022-07-10T08:18:21;6.75;;;2.08;;
52620;SDS011;38515;53.160;6.990;2022-07-10T08:20:46;6.43;;;1.98;;
52620;SDS011;38515;53.160;6.990;2022-07-10T08:23:12;7.75;;;2.05;;
52620;SDS011;38515;53.160;6.990;2022-07-10T08:25:38;10.63;;;2.05;;
52620;SDS011;38515;53.160;6.990;2022-07-10T08:28:04;8.45;;;1.98;;
52620;SDS011;38515;53.160;6.990;2022-07-10T08:30:31;4.70;;;1.83;;
52620;SDS011;38515;53.160;6.990;2022-07-10T08:32:57;2.88;;;1.50;;
52620;SDS011;38515;53.160;6.990;2022-07-10T08:35:23;8.18;;;2.08;;
52620;SDS011;38515;53.160;6.990;2022-07-10T08:37:49;5.63;;;1.92;;
52620;SDS011;38515;53.160;6.990;2022-07-10T08:40:16;4.28;;;2.05;;
52620;SDS011;38515;53.160;6.990;2022-07-10T08:42:44;3.35;;;1.50;;
52620;SDS011;38515;53.160;6.990;2022-07-10T08:45:10;7.93;;;1.70;;
52620;SDS011;38515;53.160;6.990;2022-07-10T08:47:37;5.20;;;1.90;;
52620;SDS011;38515;53.160;6.990;2022-07-10T08:50:12;5.30;;;1.70;;
52620;SDS011;38515;53.160;6.990;2022-07-10T08:52:51;6.40;;;2.58;;
52620;SDS011;38515;53.160;6.990;2022-07-10T08:55:24;6.18;;;1.58;;
52620;SDS011;38515;53.160;6.990;2022-07-10T08:57:51;6.03;;;2.33;;
52620;SDS011;38515;53.160;6.990;2022-07-10T09:00:17;4.10;;;1.80;;
52620;SDS011;38515;53.160;6.990;2022-07-10T09:02:43;2.80;;;1.20;;
52620;SDS011;38515;53.160;6.990;2022-07-10T09:05:09;4.38;;;1.48;;
52620;SDS011;38515;53.160;6.990;2022-07-10T09:07:37;2.38;;;1.55;;
52620;SDS011;38515;53.160;6.990;2022-07-10T09:10:07;3.08;;;1.17;;
52620;SDS011;38515;53.160;6.990;2022-07-10T09:12:58;3.13;;;1.02;;
52620;SDS011;38515;53.160;6.990;2022-07-10T09:15:24;3.65;;;0.88;;
52620;SDS011;38515;53.160;6.990;2022-07-10T09:17:53;3.53;;;0.90;;
52620;SDS011;38515;53.160;6.990;2022-07-10T09:20:25;1.70;;;0.80;;
52620;SDS011;38515;53.160;6.990;2022-07-10T09:22:59;2.35;;;0.98;;
52620;SDS011;38515;53.160;6.990;2022-07-10T09:25:41;1.35;;;0.75;;
52620;SDS011;38515;53.160;6.990;2022-07-10T09:28:07;2.50;;;0.80;;
52620;SDS011;38515;53.160;6.990;2022-07-10T09:30:33;1.23;;;0.70;;
52620;SDS011;38515;53.160;6.990;2022-07-10T09:33:20;2.45;;;1.23;;
52620;SDS011;38515;53.160;6.990;2022-07-10T09:35:54;1.35;;;0.80;;
52620;SDS011;38515;53.160;6.990;2022-07-10T09:41:11;1.60;;;1.00;;
52620;SDS011;38515;53.160;6.990;2022-07-10T09:43:45;3.08;;;0.93;;
52620;SDS011;38515;53.160;6.990;2022-07-10T09:46:14;2.92;;;0.98;;
52620;SDS011;38515;53.160;6.990;2022-07-10T09:48:40;7.97;;;1.40;;
52620;SDS011;38515;53.160;6.990;2022-07-10T09:51:07;3.45;;;1.05;;
52620;SDS011;38515;53.160;6.990;2022-07-10T09:53:37;4.50;;;1.60;;
52620;SDS011;38515;53.160;6.990;2022-07-10T09:56:06;4.95;;;1.67;;
52620;SDS011;38515;53.160;6.990;2022-07-10T09:58:33;3.15;;;1.00;;
52620;SDS011;38515;53.160;6.990;2022-07-10T10:01:02;2.13;;;1.30;;
52620;SDS011;38515;53.160;6.990;2022-07-10T10:03:32;1.73;;;1.02;;
52620;SDS011;38515;53.160;6.990;2022-07-10T10:06:03;3.97;;;1.58;;
52620;SDS011;38515;53.160;6.990;2022-07-10T10:11:20;4.10;;;1.20;;
52620;SDS011;38515;53.160;6.990;2022-07-10T10:13:48;3.58;;;1.17;;
52620;SDS011;38515;53.160;6.990;2022-07-10T10:16:15;5.20;;;1.50;;
52620;SDS011;38515;53.160;6.990;2022-07-10T10:18:42;2.60;;;1.00;;
52620;SDS011;38515;53.160;6.990;2022-07-10T10:21:27;3.30;;;1.85;;
52620;SDS011;38515;53.160;6.990;2022-07-10T10:23:54;3.63;;;1.10;;
52620;SDS011;38515;53.160;6.990;2022-07-10T10:26:21;3.25;;;1.48;;
52620;SDS011;38515;53.160;6.990;2022-07-10T10:28:49;3.70;;;1.35;;
52620;SDS011;38515;53.160;6.990;2022-07-10T10:31:17;3.22;;;1.17;;
52620;SDS011;38515;53.160;6.990;2022-07-10T10:33:44;3.40;;;1.48;;
52620;SDS011;38515;53.160;6.990;2022-07-10T10:36:12;4.78;;;1.65;;
52620;SDS011;38515;53.160;6.990;2022-07-10T10:41:25;7.68;;;1.42;;
52620;SDS011;38515;53.160;6.990;2022-07-10T10:46:34;4.18;;;1.48;;
52620;SDS011;38515;53.160;6.990;2022-07-10T10:49:04;2.80;;;1.20;;
52620;SDS011;38515;53.160;6.990;2022-07-10T10:54:24;1.70;;;1.05;;
52620;SDS011;38515;53.160;6.990;2022-07-10T10:59:49;2.30;;;0.68;;
52620;SDS011;38515;53.160;6.990;2022-07-10T11:02:20;1.38;;;0.60;;
52620;SDS011;38515;53.160;6.990;2022-07-10T11:04:49;0.68;;;0.50;;
52620;SDS011;38515;53.160;6.990;2022-07-10T11:10:26;2.30;;;0.80;;
52620;SDS011;38515;53.160;6.990;2022-07-10T11:12:57;1.60;;;0.90;;
52620;SDS011;38515;53.160;6.990;2022-07-10T11:15:25;5.45;;;1.17;;
52620;SDS011;38515;53.160;6.990;2022-07-10T11:17:52;2.45;;;1.10;;
52620;SDS011;38515;53.160;6.990;2022-07-10T11:20:18;2.45;;;1.25;;
52620;SDS011;38515;53.160;6.990;2022-07-10T11:22:47;5.13;;;1.30;;
52620;SDS011;38515;53.160;6.990;2022-07-10T11:25:31;3.78;;;1.50;;
52620;SDS011;38515;53.160;6.990;2022-07-10T11:28:05;5.50;;;1.23;;
52620;SDS011;38515;53.160;6.990;2022-07-10T11:30:44;1.58;;;1.20;;
52620;SDS011;38515;53.160;6.990;2022-07-10T11:33:11;3.88;;;1.58;;
52620;SDS011;38515;53.160;6.990;2022-07-10T11:35:38;1.90;;;1.20;;
52620;SDS011;38515;53.160;6.990;2022-07-10T11:38:05;2.80;;;1.63;;
52620;SDS011;38515;53.160;6.990;2022-07-10T11:40:35;3.92;;;1.67;;
52620;SDS011;38515;53.160;6.990;2022-07-10T11:43:02;3.70;;;1.83;;
52620;SDS011;38515;53.160;6.990;2022-07-10T11:45:31;4.13;;;1.98;;
52620;SDS011;38515;53.160;6.990;2022-07-10T11:47:58;3.22;;;1.70;;
52620;SDS011;38515;53.160;6.990;2022-07-10T11:50:25;1.98;;;1.67;;
52620;SDS011;38515;53.160;6.990;2022-07-10T11:52:52;4.97;;;1.90;;
52620;SDS011;38515;53.160;6.990;2022-07-10T11:55:20;3.92;;;2.17;;
52620;SDS011;38515;53.160;6.990;2022-07-10T11:57:47;3.95;;;1.98;;
52620;SDS011;38515;53.160;6.990;2022-07-10T12:00:20;5.93;;;2.30;;
52620;SDS011;38515;53.160;6.990;2022-07-10T12:02:48;6.63;;;2.97;;
52620;SDS011;38515;53.160;6.990;2022-07-10T12:05:29;7.70;;;1.92;;
52620;SDS011;38515;53.160;6.990;2022-07-10T12:07:57;7.15;;;2.35;;
52620;SDS011;38515;53.160;6.990;2022-07-10T12:10:27;6.47;;;2.13;;
52620;SDS011;38515;53.160;6.990;2022-07-10T12:13:02;3.90;;;2.00;;
52620;SDS011;38515;53.160;6.990;2022-07-10T12:15:33;5.40;;;1.95;;
52620;SDS011;38515;53.160;6.990;2022-07-10T12:18:00;5.85;;;2.70;;
52620;SDS011;38515;53.160;6.990;2022-07-10T12:20:26;4.65;;;2.47;;
52620;SDS011;38515;53.160;6.990;2022-07-10T12:22:52;4.75;;;2.33;;
52620;SDS011;38515;53.160;6.990;2022-07-10T12:25:21;5.55;;;2.20;;
52620;SDS011;38515;53.160;6.990;2022-07-10T12:27:48;8.05;;;3.03;;
52620;SDS011;38515;53.160;6.990;2022-07-10T12:30:14;7.47;;;2.53;;
52620;SDS011;38515;53.160;6.990;2022-07-10T12:32:40;8.73;;;2.33;;
52620;SDS011;38515;53.160;6.990;2022-07-10T12:35:06;6.95;;;2.85;;
52620;SDS011;38515;53.160;6.990;2022-07-10T12:37:47;5.78;;;2.70;;
52620;SDS011;38515;53.160;6.990;2022-07-10T12:40:30;9.05;;;2.50;;
52620;SDS011;38515;53.160;6.990;2022-07-10T12:43:01;5.15;;;2.60;;
52620;SDS011;38515;53.160;6.990;2022-07-10T12:45:28;8.55;;;2.20;;
52620;SDS011;38515;53.160;6.990;2022-07-10T12:47:54;4.55;;;2.22;;
52620;SDS011;38515;53.160;6.990;2022-07-10T12:50:20;3.55;;;2.20;;
52620;SDS011;38515;53.160;6.990;2022-07-10T12:53:06;4.88;;;2.03;;
52620;SDS011;38515;53.160;6.990;2022-07-10T12:55:35;6.35;;;2.28;;
52620;SDS011;38515;53.160;6.990;2022-07-10T12:58:04;3.92;;;1.95;;
52620;SDS011;38515;53.160;6.990;2022-07-10T13:00:34;5.57;;;2.45;;
52620;SDS011;38515;53.160;6.990;2022-07-10T13:03:03;3.38;;;2.05;;
52620;SDS011;38515;53.160;6.990;2022-07-10T13:05:32;3.80;;;2.20;;
52620;SDS011;38515;53.160;6.990;2022-07-10T13:08:06;3.17;;;1.70;;
52620;SDS011;38515;53.160;6.990;2022-07-10T13:10:40;2.95;;;1.70;;
52620;SDS011;38515;53.160;6.990;2022-07-10T13:13:06;5.03;;;2.03;;
52620;SDS011;38515;53.160;6.990;2022-07-10T13:15:32;2.42;;;1.77;;
52620;SDS011;38515;53.160;6.990;2022-07-10T13:18:06;4.15;;;1.92;;
52620;SDS011;38515;53.160;6.990;2022-07-10T13:20:33;5.68;;;1.80;;
52620;SDS011;38515;53.160;6.990;2022-07-10T13:22:59;6.78;;;2.13;;
52620;SDS011;38515;53.160;6.990;2022-07-10T13:25:25;6.50;;;2.40;;
52620;SDS011;38515;53.160;6.990;2022-07-10T13:27:51;10.23;;;2.10;;
52620;SDS011;38515;53.160;6.990;2022-07-10T13:30:17;6.13;;;2.17;;
52620;SDS011;38515;53.160;6.990;2022-07-10T13:32:43;8.70;;;3.38;;
52620;SDS011;38515;53.160;6.990;2022-07-10T13:35:09;8.77;;;2.20;;
52620;SDS011;38515;53.160;6.990;2022-07-10T13:37:35;4.53;;;1.85;;
52620;SDS011;38515;53.160;6.990;2022-07-10T13:40:00;7.78;;;2.72;;
52620;SDS011;38515;53.160;6.990;2022-07-10T13:42:26;6.53;;;2.10;;
52620;SDS011;38515;53.160;6.990;2022-07-10T13:44:53;7.57;;;1.95;;
52620;SDS011;38515;53.160;6.990;2022-07-10T13:47:20;8.98;;;2.28;;
52620;SDS011;38515;53.160;6.990;2022-07-10T13:49:46;6.70;;;2.38;;
52620;SDS011;38515;53.160;6.990;2022-07-10T13:52:12;4.10;;;2.13;;
52620;SDS011;38515;53.160;6.990;2022-07-10T13:54:38;4.32;;;1.70;;
52620;SDS011;38515;53.160;6.990;2022-07-10T13:57:04;3.90;;;2.15;;
52620;SDS011;38515;53.160;6.990;2022-07-10T13:59:30;4.95;;;2.88;;
52620;SDS011;38515;53.160;6.990;2022-07-10T14:01:56;7.25;;;2.97;;
52620;SDS011;38515;53.160;6.990;2022-07-10T14:04:22;6.15;;;2.75;;
52620;SDS011;38515;53.160;6.990;2022-07-10T14:06:48;4.60;;;3.00;;
52620;SDS011;38515;53.160;6.990;2022-07-10T14:09:14;7.38;;;2.75;;
52620;SDS011;38515;53.160;6.990;2022-07-10T14:11:43;7.10;;;2.63;;
52620;SDS011;38515;53.160;6.990;2022-07-10T14:14:09;8.80;;;2.83;;
52620;SDS011;38515;53.160;6.990;2022-07-10T14:16:36;9.10;;;2.83;;
52620;SDS011;38515;53.160;6.990;2022-07-10T14:19:02;5.95;;;2.42;;
52620;SDS011;38515;53.160;6.990;2022-07-10T14:21:28;2.38;;;2.08;;
52620;SDS011;38515;53.160;6.990;2022-07-10T14:23:54;4.72;;;2.50;;
52620;SDS011;38515;53.160;6.990;2022-07-10T14:26:21;6.07;;;2.20;;
52620;SDS011;38515;53.160;6.990;2022-07-10T14:28:48;6.10;;;2.00;;
52620;SDS011;38515;53.160;6.990;2022-07-10T14:31:14;4.43;;;2.10;;
52620;SDS011;38515;53.160;6.990;2022-07-10T14:33:40;4.63;;;2.65;;
52620;SDS011;38515;53.160;6.990;2022-07-10T14:36:06;7.78;;;2.58;;
52620;SDS011;38515;53.160;6.990;2022-07-10T14:38:33;3.88;;;2.45;;
52620;SDS011;38515;53.160;6.990;2022-07-10T14:40:59;6.28;;;2.03;;
52620;SDS011;38515;53.160;6.990;2022-07-10T14:43:26;8.38;;;2.65;;
52620;SDS011;38515;53.160;6.990;2022-07-10T14:45:53;3.58;;;2.45;;
52620;SDS011;38515;53.160;6.990;2022-07-10T14:48:20;6.63;;;2.47;;
52620;SDS011;38515;53.160;6.990;2022-07-10T14:50:46;3.47;;;2.30;;
52620;SDS011;38515;53.160;6.990;2022-07-10T14:53:11;4.90;;;2.30;;
52620;SDS011;38515;53.160;6.990;2022-07-10T14:55:37;3.00;;;2.03;;
52620;SDS011;38515;53.160;6.990;2022-07-10T14:58:03;5.00;;;2.42;;
52620;SDS011;38515;53.160;6.990;2022-07-10T15:00:31;4.32;;;2.50;;
52620;SDS011;38515;53.160;6.990;2022-07-10T15:02:59;10.15;;;2.28;;
52620;SDS011;38515;53.160;6.990;2022-07-10T15:05:25;3.75;;;2.15;;
52620;SDS011;38515;53.160;6.990;2022-07-10T15:07:51;6.68;;;2.58;;
52620;SDS011;38515;53.160;6.990;2022-07-10T15:10:17;7.18;;;2.80;;